Terminal Aerodrome Forecast
Issued by NWS Grand Rapids, MI

Home | Current Version | Previous Version | Text Only | Print | Product List | Glossary On
Versions: 1 2 3 4 5 6 7 8 9 10 11 12 13 14 15 16 17 18 19 20 21 22 23 24
000
FTUS43 KGRR 201100
TAFGRR
TAF
KGRR 201138Z 2012/2112 21012KT P6SM VCSH FEW030 BKN080 BKN140
     FM201400 20014G24KT P6SM BKN150 OVC250
     FM201600 19016G26KT P6SM VCTS BKN050CB
     FM201900 20016G26KT 4SM TSRA BR OVC025CB
     FM202100 23012KT P6SM VCTS SCT025 BKN050CB
     FM210100 24009KT P6SM BKN100
     FM210600 27004KT P6SM OVC050=

USA.gov is the U.S. government's official web portal to all federal, state and local government web resources and services.